createdAt,value
2017-05-17T00:00:18.103Z,99.90
2017-05-17T00:02:46.608Z,99.90
2017-05-17T00:05:15.112Z,99.90
2017-05-17T00:07:43.901Z,99.90
2017-05-17T00:10:12.439Z,99.90
2017-05-17T00:12:40.945Z,99.90
2017-05-17T00:15:09.487Z,99.90
2017-05-17T00:17:37.984Z,99.90
2017-05-17T00:20:06.492Z,99.90
2017-05-17T00:22:35.040Z,99.90
2017-05-17T00:25:03.539Z,99.90
2017-05-17T00:27:32.037Z,99.90
2017-05-17T00:30:00.600Z,99.90
2017-05-17T00:32:29.095Z,99.90
2017-05-17T00:34:57.595Z,99.90
2017-05-17T00:37:37.881Z,99.90
2017-05-17T00:40:18.412Z,99.90
2017-05-17T00:42:58.857Z,99.90
2017-05-17T00:45:39.144Z,99.90
2017-05-17T00:48:19.553Z,99.90
2017-05-17T00:50:59.820Z,99.90
2017-05-17T00:53:28.360Z,99.90
2017-05-17T00:55:56.860Z,99.90
2017-05-17T00:58:25.364Z,99.90
2017-05-17T01:00:53.908Z,99.90
2017-05-17T01:03:22.409Z,99.90
2017-05-17T01:05:50.909Z,99.90
2017-05-17T01:08:19.451Z,99.90
2017-05-17T01:10:47.948Z,99.90
2017-05-17T01:13:16.444Z,99.90
2017-05-17T01:15:45.021Z,99.90
2017-05-17T01:18:13.517Z,99.90
2017-05-17T01:20:42.022Z,99.90
2017-05-17T01:23:10.589Z,99.90
2017-05-17T01:25:39.093Z,99.90
2017-05-17T01:28:07.596Z,99.90
2017-05-17T01:30:36.141Z,99.90
2017-05-17T01:33:04.656Z,99.90
2017-05-17T01:35:33.168Z,99.90
2017-05-17T01:38:01.744Z,99.90
2017-05-17T01:40:30.243Z,99.90
2017-05-17T01:42:58.753Z,99.90
2017-05-17T01:45:27.296Z,99.90
2017-05-17T01:47:55.797Z,99.90
2017-05-17T01:50:24.300Z,99.90
2017-05-17T01:52:52.841Z,99.90
2017-05-17T01:55:21.343Z,99.90
2017-05-17T01:57:49.844Z,99.90
2017-05-17T02:00:18.411Z,99.90
2017-05-17T02:02:46.911Z,99.90
2017-05-17T02:05:33.163Z,99.90
2017-05-17T02:08:01.764Z,99.90
2017-05-17T02:10:30.264Z,99.90
2017-05-17T02:12:58.804Z,99.90
2017-05-17T02:15:27.303Z,99.90
2017-05-17T02:17:55.805Z,99.90
2017-05-17T02:20:24.379Z,99.90
2017-05-17T02:22:53.616Z,99.90
2017-05-17T02:25:22.127Z,99.90
2017-05-17T02:27:50.667Z,99.90
2017-05-17T02:30:19.171Z,99.90
2017-05-17T02:32:47.672Z,99.90
2017-05-17T02:35:16.244Z,99.90
2017-05-17T02:37:44.746Z,99.90
2017-05-17T02:40:13.239Z,99.90
2017-05-17T02:42:41.780Z,99.90
2017-05-17T02:45:10.300Z,99.90
2017-05-17T02:47:38.804Z,99.90
2017-05-17T02:50:07.344Z,99.90
2017-05-17T02:52:35.838Z,99.90
2017-05-17T02:55:04.333Z,99.90
2017-05-17T02:57:32.883Z,99.90
2017-05-17T03:00:01.384Z,99.90
2017-05-17T03:02:29.883Z,99.90
2017-05-17T03:04:58.428Z,99.90
2017-05-17T03:07:26.954Z,99.90
2017-05-17T03:09:55.479Z,99.90
2017-05-17T03:12:24.854Z,99.90
2017-05-17T03:14:53.355Z,99.90
2017-05-17T03:17:21.860Z,99.90
2017-05-17T03:19:50.408Z,99.90
2017-05-17T03:22:18.903Z,99.90
2017-05-17T03:24:47.405Z,99.90
2017-05-17T03:27:15.950Z,99.90
2017-05-17T03:29:44.443Z,99.90
2017-05-17T03:32:12.940Z,99.90
2017-05-17T03:34:41.485Z,99.90
2017-05-17T03:37:09.988Z,99.90
2017-05-17T03:39:38.496Z,99.90
2017-05-17T03:42:07.040Z,99.90
2017-05-17T03:44:35.541Z,99.90
2017-05-17T03:47:04.044Z,99.90
2017-05-17T03:49:32.696Z,99.90
2017-05-17T03:52:01.199Z,99.90
2017-05-17T03:54:29.704Z,99.90
2017-05-17T03:56:58.246Z,99.90
2017-05-17T03:59:26.772Z,97.70
2017-05-17T04:01:55.276Z,92.70
2017-05-17T04:04:23.850Z,79.00
2017-05-17T04:06:52.372Z,68.60
2017-05-17T04:09:20.869Z,63.80
2017-05-17T04:11:49.413Z,62.80
2017-05-17T04:14:17.924Z,56.60
2017-05-17T04:16:46.427Z,52.70
2017-05-17T04:19:14.971Z,49.20
2017-05-17T04:21:44.393Z,47.20
2017-05-17T04:24:12.897Z,44.40
2017-05-17T04:26:41.440Z,42.10
2017-05-17T04:34:08.212Z,39.90
2017-05-17T04:36:36.715Z,39.60
2017-05-17T04:57:19.917Z,40.90
2017-05-17T04:59:48.415Z,40.00
2017-05-17T05:02:16.926Z,38.50
2017-05-17T05:04:45.485Z,38.40
2017-05-17T05:07:13.997Z,39.20
2017-05-17T05:09:42.510Z,36.10
2017-05-17T05:12:11.061Z,35.90
2017-05-17T05:14:39.572Z,36.10
2017-05-17T05:17:08.084Z,35.40
2017-05-17T05:19:36.640Z,31.10
2017-05-17T05:22:05.144Z,29.60
2017-05-17T05:24:33.652Z,28.30
2017-05-17T05:27:02.204Z,26.30
2017-05-17T05:29:30.716Z,24.70
2017-05-17T05:31:59.230Z,24.50
2017-05-17T05:34:27.785Z,22.40
2017-05-17T05:36:56.309Z,22.30
2017-05-17T05:39:24.820Z,21.70
2017-05-17T05:41:53.385Z,20.90
2017-05-17T05:44:21.906Z,21.10
2017-05-17T05:46:50.425Z,19.60
2017-05-17T05:49:19.008Z,19.50
2017-05-17T05:51:47.512Z,17.70
2017-05-17T05:54:16.015Z,17.40
2017-05-17T05:56:44.560Z,18.50
2017-05-17T05:59:13.068Z,19.40
2017-05-17T06:01:41.572Z,17.80
2017-05-17T06:04:10.128Z,17.00
2017-05-17T06:06:38.641Z,18.50
2017-05-17T06:09:07.189Z,18.20
2017-05-17T06:11:35.746Z,18.80
2017-05-17T06:14:04.258Z,18.30
2017-05-17T06:16:32.768Z,18.50
2017-05-17T06:19:01.331Z,17.60
2017-05-17T06:21:29.846Z,17.30
2017-05-17T06:23:58.357Z,17.60
2017-05-17T06:26:26.907Z,17.80
2017-05-17T06:28:55.421Z,18.30
2017-05-17T06:31:23.929Z,18.00
2017-05-17T06:33:52.495Z,17.50
2017-05-17T06:36:21.000Z,18.30
2017-05-17T06:38:49.516Z,18.30
2017-05-17T06:41:18.079Z,17.90
2017-05-17T06:43:46.583Z,18.70
2017-05-17T06:46:15.092Z,18.80
2017-05-17T06:48:43.652Z,19.10
2017-05-17T06:51:12.165Z,19.00
2017-05-17T06:53:40.673Z,16.90
2017-05-17T06:56:09.225Z,16.40
2017-05-17T06:58:37.735Z,15.70
2017-05-17T07:01:06.234Z,17.30
2017-05-17T07:03:34.782Z,17.20
2017-05-17T07:06:03.287Z,17.60
2017-05-17T07:08:31.808Z,16.80
2017-05-17T07:11:00.364Z,16.00
2017-05-17T07:13:28.916Z,17.40
2017-05-17T07:15:57.429Z,17.40
2017-05-17T07:18:25.989Z,17.50
2017-05-17T07:20:54.501Z,16.20
2017-05-17T07:23:23.013Z,16.60
2017-05-17T07:25:51.565Z,17.40
2017-05-17T07:28:20.069Z,17.20
2017-05-17T07:30:48.586Z,16.50
2017-05-17T07:33:17.145Z,15.70
2017-05-17T07:35:45.648Z,16.20
2017-05-17T07:38:14.163Z,16.00
2017-05-17T07:40:42.705Z,15.10
2017-05-17T07:43:11.213Z,14.90
2017-05-17T07:45:39.715Z,14.50
2017-05-17T07:48:08.264Z,15.70
2017-05-17T07:50:36.765Z,15.40
2017-05-17T07:53:05.275Z,15.30
2017-05-17T07:55:33.823Z,16.60
2017-05-17T07:58:02.329Z,17.30
2017-05-17T08:00:30.840Z,15.90
2017-05-17T08:02:59.387Z,16.70
2017-05-17T08:05:27.892Z,17.10
2017-05-17T08:07:56.396Z,16.80
2017-05-17T08:10:24.939Z,16.20
2017-05-17T08:12:53.445Z,15.90
2017-05-17T08:15:21.947Z,16.80
2017-05-17T08:17:50.492Z,16.20
2017-05-17T08:20:18.998Z,14.80
2017-05-17T08:22:47.500Z,14.10
2017-05-17T08:25:16.041Z,16.10
2017-05-17T08:27:44.554Z,17.10
2017-05-17T08:30:13.064Z,17.20
2017-05-17T08:32:41.603Z,16.10
2017-05-17T08:35:10.113Z,16.20
2017-05-17T08:37:38.621Z,17.10
2017-05-17T08:40:07.168Z,17.60
2017-05-17T08:42:35.709Z,18.40
2017-05-17T08:45:04.208Z,18.30
2017-05-17T08:47:32.743Z,17.70
2017-05-17T08:50:01.252Z,18.50
2017-05-17T08:52:29.765Z,16.70
2017-05-17T08:54:58.313Z,16.60
2017-05-17T08:57:26.816Z,15.30
2017-05-17T08:59:55.327Z,16.10
2017-05-17T09:02:23.877Z,17.80
2017-05-17T09:04:52.383Z,18.40
2017-05-17T09:07:20.889Z,19.50
2017-05-17T09:09:49.432Z,20.30
2017-05-17T09:12:17.941Z,20.50
2017-05-17T09:14:46.455Z,19.50
2017-05-17T09:17:15.017Z,18.00
2017-05-17T09:19:43.527Z,18.20
2017-05-17T09:22:12.032Z,19.00
2017-05-17T09:24:40.581Z,18.70
2017-05-17T09:27:09.089Z,19.50
2017-05-17T09:29:37.614Z,20.40
2017-05-17T09:32:06.163Z,22.40
2017-05-17T09:34:34.661Z,23.10
2017-05-17T09:37:03.165Z,23.50
2017-05-17T09:39:31.714Z,25.00
2017-05-17T09:42:00.219Z,26.40
2017-05-17T09:44:28.729Z,25.10
2017-05-17T09:46:57.265Z,25.70
2017-05-17T09:49:25.768Z,26.10
2017-05-17T09:51:54.282Z,26.40
2017-05-17T09:54:22.828Z,27.20
2017-05-17T09:56:51.335Z,28.00
2017-05-17T09:59:19.838Z,29.00
2017-05-17T10:01:48.375Z,30.10
2017-05-17T10:04:16.877Z,28.40
2017-05-17T10:06:45.385Z,29.40
2017-05-17T10:09:13.924Z,26.80
2017-05-17T10:11:42.435Z,27.10
2017-05-17T10:14:10.938Z,27.30
2017-05-17T10:16:39.514Z,29.50
2017-05-17T10:19:08.062Z,29.60
2017-05-17T10:21:36.566Z,29.20
2017-05-17T10:24:05.104Z,28.70
2017-05-17T10:26:33.600Z,28.10
2017-05-17T10:29:02.101Z,28.10
2017-05-17T10:31:30.641Z,26.90
2017-05-17T10:33:59.141Z,27.20
2017-05-17T10:36:27.643Z,27.70
2017-05-17T10:38:56.189Z,28.50
2017-05-17T10:41:24.689Z,27.50
2017-05-17T10:43:53.195Z,27.40
2017-05-17T10:46:21.741Z,27.20
2017-05-17T10:48:50.239Z,27.80
2017-05-17T10:51:18.746Z,28.70
2017-05-17T10:53:47.296Z,28.90
2017-05-17T10:56:15.805Z,29.50
2017-05-17T10:58:44.306Z,28.80
2017-05-17T11:01:12.852Z,29.20
2017-05-17T11:03:41.349Z,28.50
2017-05-17T11:06:09.857Z,28.60
2017-05-17T11:08:38.413Z,28.30
2017-05-17T11:11:06.917Z,29.50
2017-05-17T11:13:35.422Z,28.70
2017-05-17T11:16:03.983Z,28.60
2017-05-17T11:18:32.483Z,28.30
2017-05-17T11:21:00.990Z,28.30
2017-05-17T11:23:29.533Z,28.60
2017-05-17T11:25:58.053Z,28.10
2017-05-17T11:28:26.544Z,30.10
2017-05-17T11:30:55.105Z,28.80
2017-05-17T11:33:23.611Z,29.30
2017-05-17T11:35:52.111Z,29.50
2017-05-17T11:38:20.658Z,28.90
2017-05-17T11:40:49.163Z,29.80
2017-05-17T11:43:17.670Z,29.70
2017-05-17T11:45:46.249Z,28.20
2017-05-17T11:48:14.755Z,28.20
2017-05-17T11:50:43.254Z,28.80
2017-05-17T11:53:11.805Z,29.50
2017-05-17T11:55:40.310Z,29.30
2017-05-17T11:58:08.803Z,29.80
2017-05-17T12:00:37.349Z,29.00
2017-05-17T12:03:05.856Z,29.60
2017-05-17T12:05:34.365Z,29.50
2017-05-17T12:08:02.907Z,29.40
2017-05-17T12:10:31.405Z,26.00
2017-05-17T12:12:59.906Z,25.50
2017-05-17T12:15:28.452Z,25.00
2017-05-17T12:17:56.952Z,25.60
2017-05-17T12:20:25.459Z,27.40
2017-05-17T12:22:54.000Z,26.80
2017-05-17T12:25:22.499Z,25.40
2017-05-17T12:27:50.999Z,27.10
2017-05-17T12:30:19.553Z,27.30
2017-05-17T12:32:48.058Z,24.80
2017-05-17T12:35:16.571Z,27.50
2017-05-17T12:37:45.112Z,28.00
2017-05-17T12:40:13.623Z,28.10
2017-05-17T12:42:42.120Z,26.70
2017-05-17T12:45:10.693Z,28.20
2017-05-17T12:47:39.191Z,27.20
2017-05-17T12:50:07.692Z,26.80
2017-05-17T12:52:36.248Z,27.10
2017-05-17T12:55:04.760Z,27.20
2017-05-17T12:57:33.258Z,25.30
2017-05-17T13:00:01.801Z,25.40
2017-05-17T13:02:30.303Z,24.90
2017-05-17T13:04:58.815Z,25.10
2017-05-17T13:07:27.368Z,26.50
2017-05-17T13:09:55.866Z,26.30
2017-05-17T13:12:24.372Z,26.50
2017-05-17T13:14:52.927Z,27.40
2017-05-17T13:17:21.426Z,27.90
2017-05-17T13:19:49.925Z,27.60
2017-05-17T13:22:18.463Z,26.60
2017-05-17T13:24:46.965Z,27.00
2017-05-17T13:27:15.470Z,27.30
2017-05-17T13:29:44.277Z,28.10
2017-05-17T13:32:12.788Z,27.90
2017-05-17T13:34:41.284Z,27.60
2017-05-17T13:37:09.824Z,26.70
2017-05-17T13:39:38.325Z,27.60
2017-05-17T13:42:06.826Z,27.80
2017-05-17T13:44:35.367Z,27.60
2017-05-17T13:47:03.869Z,28.00
2017-05-17T13:49:32.380Z,28.90
2017-05-17T13:52:00.920Z,29.30
2017-05-17T13:54:29.424Z,28.40
2017-05-17T13:56:57.924Z,27.30
2017-05-17T13:59:26.462Z,26.60
2017-05-17T14:01:54.973Z,26.80
2017-05-17T14:04:23.473Z,27.60
2017-05-17T14:06:52.017Z,26.80
2017-05-17T14:09:20.517Z,26.90
2017-05-17T14:11:49.024Z,26.60
2017-05-17T14:14:17.565Z,27.10
2017-05-17T14:16:46.071Z,26.90
2017-05-17T14:19:14.564Z,27.60
2017-05-17T14:21:43.112Z,27.40
2017-05-17T14:24:11.617Z,26.60
2017-05-17T14:26:40.121Z,26.10
2017-05-17T14:29:08.670Z,27.80
2017-05-17T14:31:37.173Z,27.20
2017-05-17T14:34:05.677Z,25.80
2017-05-17T14:36:34.225Z,26.30
2017-05-17T14:39:02.724Z,27.00
2017-05-17T14:41:31.225Z,27.30
2017-05-17T14:43:59.777Z,26.00
2017-05-17T14:46:28.276Z,26.90
2017-05-17T14:48:56.777Z,26.70
2017-05-17T14:51:25.318Z,27.60
2017-05-17T14:53:53.817Z,27.80
2017-05-17T14:56:22.342Z,27.60
2017-05-17T14:58:50.891Z,28.20
2017-05-17T15:01:19.401Z,27.40
2017-05-17T15:03:47.908Z,26.40
2017-05-17T15:06:16.462Z,24.90
2017-05-17T15:08:44.962Z,25.30
2017-05-17T15:11:13.466Z,24.40
2017-05-17T15:13:42.004Z,24.30
2017-05-17T15:16:10.509Z,24.20
2017-05-17T15:18:39.009Z,24.80
2017-05-17T15:21:07.554Z,24.30
2017-05-17T15:23:36.066Z,24.60
2017-05-17T15:26:04.576Z,24.00
2017-05-17T15:28:33.131Z,24.40
2017-05-17T15:31:01.628Z,24.20
2017-05-17T15:33:30.129Z,24.50
2017-05-17T15:35:58.688Z,25.30
2017-05-17T15:38:27.189Z,24.80
2017-05-17T15:40:55.693Z,25.20
2017-05-17T15:43:24.244Z,25.20
2017-05-17T15:45:52.747Z,25.80
2017-05-17T15:48:21.253Z,26.50
2017-05-17T15:50:49.795Z,26.40
2017-05-17T15:53:18.302Z,26.80
2017-05-17T15:55:46.803Z,27.40
2017-05-17T15:58:15.353Z,27.60
2017-05-17T16:00:43.852Z,28.20
2017-05-17T16:03:12.353Z,28.30
2017-05-17T16:05:40.900Z,27.90
2017-05-17T16:08:09.399Z,28.10
2017-05-17T16:10:37.904Z,27.40
2017-05-17T16:13:06.444Z,28.10
2017-05-17T16:15:34.948Z,28.40
2017-05-17T16:18:03.479Z,28.70
2017-05-17T16:20:32.019Z,28.80
2017-05-17T16:23:00.540Z,29.50
2017-05-17T16:25:29.037Z,30.10
2017-05-17T16:27:57.582Z,30.40
2017-05-17T16:30:26.077Z,30.80
2017-05-17T16:32:54.581Z,30.10
2017-05-17T16:35:23.132Z,30.50
2017-05-17T16:37:51.633Z,30.90
2017-05-17T16:40:20.133Z,32.20
2017-05-17T16:42:48.667Z,31.60
2017-05-17T16:45:17.164Z,31.80
2017-05-17T16:47:45.669Z,32.60
2017-05-17T16:50:14.209Z,31.60
2017-05-17T16:52:43.711Z,31.40
2017-05-17T16:55:12.204Z,31.60
2017-05-17T16:57:40.745Z,32.10
2017-05-17T17:00:09.244Z,32.70
2017-05-17T17:02:37.756Z,33.00
2017-05-17T17:05:06.338Z,32.90
2017-05-17T17:07:34.841Z,33.50
2017-05-17T17:10:03.340Z,33.00
2017-05-17T17:12:31.885Z,32.70
2017-05-17T17:15:00.417Z,33.20
2017-05-17T17:17:28.916Z,33.40
2017-05-17T17:19:57.476Z,33.90
2017-05-17T17:22:25.992Z,34.00
2017-05-17T17:24:54.493Z,34.20
2017-05-17T17:27:23.041Z,34.20
2017-05-17T17:29:51.548Z,34.80
2017-05-17T17:32:20.102Z,35.40
2017-05-17T17:34:48.663Z,34.90
2017-05-17T17:37:17.181Z,35.20
2017-05-17T17:39:45.926Z,35.50
2017-05-17T17:42:14.580Z,35.70
2017-05-17T17:44:43.088Z,35.80
2017-05-17T17:47:11.581Z,36.20
2017-05-17T17:49:40.129Z,36.50
2017-05-17T17:52:08.636Z,37.30
2017-05-17T17:54:37.145Z,37.30
2017-05-17T17:57:05.692Z,37.60
2017-05-17T17:59:34.208Z,37.70
2017-05-17T18:02:02.722Z,38.40
2017-05-17T18:04:31.271Z,38.60
2017-05-17T18:06:59.768Z,39.00
2017-05-17T18:09:28.268Z,39.20
2017-05-17T18:11:56.815Z,39.80
2017-05-17T18:14:25.320Z,39.90
2017-05-17T18:16:53.826Z,39.90
2017-05-17T18:19:22.403Z,40.40
2017-05-17T18:21:50.912Z,42.10
2017-05-17T18:24:19.451Z,42.00
2017-05-17T18:26:48.005Z,41.80
2017-05-17T18:29:16.517Z,42.10
2017-05-17T18:31:45.041Z,43.60
2017-05-17T18:34:13.592Z,43.40
2017-05-17T18:36:42.132Z,43.80
2017-05-17T18:39:10.665Z,43.60
2017-05-17T18:41:39.231Z,44.70
2017-05-17T18:44:07.744Z,45.00
2017-05-17T18:46:36.269Z,45.70
2017-05-17T18:49:04.848Z,46.10
2017-05-17T18:51:33.846Z,46.90
2017-05-17T18:54:02.380Z,47.50
2017-05-17T18:56:30.963Z,47.40
2017-05-17T18:58:59.468Z,47.90
2017-05-17T19:01:27.984Z,48.70
2017-05-17T19:03:56.531Z,49.00
2017-05-17T19:06:25.049Z,49.70
2017-05-17T19:08:53.559Z,50.20
2017-05-17T19:11:22.113Z,51.10
2017-05-17T19:13:50.628Z,51.10
2017-05-17T19:16:19.137Z,52.20
2017-05-17T19:18:47.682Z,52.50
2017-05-17T19:21:16.190Z,52.40
2017-05-17T19:23:44.699Z,52.90
2017-05-17T19:26:13.271Z,53.20
2017-05-17T19:28:41.780Z,54.00
2017-05-17T19:31:10.291Z,54.30
2017-05-17T19:33:38.845Z,55.10
2017-05-17T19:36:07.356Z,55.10
2017-05-17T19:38:35.877Z,55.60
2017-05-17T19:41:04.431Z,56.50
2017-05-17T19:43:32.957Z,57.50
2017-05-17T19:46:01.468Z,57.40
2017-05-17T19:48:30.036Z,58.00
2017-05-17T19:50:58.549Z,59.00
2017-05-17T19:53:27.054Z,58.70
2017-05-17T19:55:55.596Z,59.00
2017-05-17T19:58:24.105Z,58.70
2017-05-17T20:00:52.617Z,59.00
2017-05-17T20:03:21.372Z,59.40
2017-05-17T20:05:49.887Z,59.70
2017-05-17T20:08:18.456Z,60.10
2017-05-17T20:10:47.008Z,60.30
2017-05-17T20:13:15.549Z,60.90
2017-05-17T20:15:44.051Z,60.80
2017-05-17T20:18:12.595Z,61.50
2017-05-17T20:20:41.154Z,61.60
2017-05-17T20:23:09.687Z,62.20
2017-05-17T20:25:38.240Z,62.90
2017-05-17T20:28:06.802Z,62.90
2017-05-17T20:30:35.331Z,62.80
2017-05-17T20:33:03.900Z,63.70
2017-05-17T20:35:32.409Z,63.90
2017-05-17T20:38:00.930Z,63.80
2017-05-17T20:40:29.483Z,63.80
2017-05-17T20:42:57.996Z,63.70
2017-05-17T20:45:26.499Z,64.10
2017-05-17T20:47:55.048Z,65.00
2017-05-17T20:50:23.570Z,64.80
2017-05-17T20:52:52.087Z,64.10
2017-05-17T20:55:20.662Z,64.30
2017-05-17T20:57:49.290Z,64.60
2017-05-17T21:00:18.797Z,64.90
2017-05-17T21:02:47.353Z,64.60
2017-05-17T21:05:15.884Z,64.30
2017-05-17T21:07:44.406Z,64.20
2017-05-17T21:10:12.961Z,64.40
2017-05-17T21:12:41.464Z,63.60
2017-05-17T21:15:09.972Z,63.50
2017-05-17T21:17:38.525Z,64.60
2017-05-17T21:20:07.030Z,64.50
2017-05-17T21:22:35.569Z,63.70
2017-05-17T21:25:04.133Z,63.00
2017-05-17T21:27:32.639Z,62.70
2017-05-17T21:30:01.217Z,64.30
2017-05-17T21:32:29.780Z,63.80
2017-05-17T21:34:58.293Z,63.20
2017-05-17T21:37:26.810Z,63.20
2017-05-17T21:39:55.401Z,63.10
2017-05-17T21:42:23.925Z,64.30
2017-05-17T21:44:52.433Z,65.00
2017-05-17T21:47:20.976Z,66.20
2017-05-17T21:49:49.487Z,68.00
2017-05-17T21:52:17.997Z,68.60
2017-05-17T21:54:46.545Z,68.80
2017-05-17T21:57:15.071Z,70.10
2017-05-17T21:59:43.586Z,70.80
2017-05-17T22:02:12.141Z,72.60
2017-05-17T22:04:40.647Z,72.90
2017-05-17T22:07:09.175Z,73.40
2017-05-17T22:09:37.723Z,74.20
2017-05-17T22:12:06.230Z,76.20
2017-05-17T22:14:34.818Z,77.10
2017-05-17T22:17:03.365Z,77.60
2017-05-17T22:19:31.897Z,78.80
2017-05-17T22:22:00.443Z,80.80
2017-05-17T22:24:28.992Z,83.10
2017-05-17T22:26:58.009Z,87.00
2017-05-17T22:29:26.583Z,89.10
2017-05-17T22:31:55.139Z,90.10
2017-05-17T22:34:23.653Z,90.90
2017-05-17T22:36:52.200Z,91.60
2017-05-17T22:39:20.749Z,92.40
2017-05-17T22:41:49.267Z,92.90
2017-05-17T22:44:17.797Z,93.40
2017-05-17T22:46:46.354Z,94.00
2017-05-17T22:49:14.870Z,94.60
2017-05-17T22:51:43.372Z,94.90
2017-05-17T22:54:11.933Z,95.10
2017-05-17T22:56:40.450Z,95.80
2017-05-17T22:59:08.961Z,95.90
2017-05-17T23:01:37.505Z,96.10
2017-05-17T23:04:06.027Z,96.10
2017-05-17T23:06:34.540Z,96.10
2017-05-17T23:09:03.152Z,96.10
2017-05-17T23:11:31.661Z,96.10
2017-05-17T23:14:00.164Z,96.30
2017-05-17T23:16:27.946Z,96.30
2017-05-17T23:18:56.454Z,96.10
2017-05-17T23:21:24.961Z,96.10
2017-05-17T23:23:53.541Z,96.10
2017-05-17T23:26:22.045Z,95.90
2017-05-17T23:28:50.576Z,96.10
2017-05-17T23:31:19.183Z,96.00
2017-05-17T23:33:47.697Z,96.60
2017-05-17T23:36:16.204Z,97.20
2017-05-17T23:38:44.749Z,97.40
2017-05-17T23:41:13.254Z,97.60
2017-05-17T23:43:41.761Z,97.50
2017-05-17T23:46:10.308Z,97.60
2017-05-17T23:48:38.814Z,97.70
2017-05-17T23:51:07.321Z,97.90
2017-05-17T23:53:35.865Z,97.90
2017-05-17T23:56:04.386Z,97.80
2017-05-17T23:58:32.948Z,98.00
